Sedgwick, Arkansas
Current Conditions -  °F | °C
As of 3:55 AM on Saturday 29 Nov 2014 (Local Time) from KARG Reporting Station
Overcast Overcast  
Wind Chill: 40°   Ceiling: 1500
Heat Index: 46°   Visibility: 10mi
Dew Point: 37°   Wind: 15mph
Humidity: 71%   Direction: 180°S
Pressure: 29.95"   Gusts: NA
Location:  35.98°N, 90.86°W
Report Text: KARG 290955Z AUTO 18013KT 10SM OVC015 08/03 A2995 RMK AO1
Loading
Personal Weather Stations






























Interactive Weather Map New forecast layout! Learn more

10-Day Weather Forecast

Advertisements
Track Severe Weather on mobile